Time;durP1;ratioP1;P1;durP2;ratioP2;P2;SDS_P1;SDS_P2;PMS_P1;PMS_P2;Temp;Humidity;BMP_temperature;BMP_pressure;BME280_temperature;BME280_humidity;BME280_pressure;Samples;Min_cycle;Max_cycle;Signal;HPM_P1;HPM_P2
2021/07/27 00:02:15;;;;;;;48.88;28.08;;;18.90;99.90;;;;;;5015350;28;20228;-66
2021/07/27 00:04:42;;;;;;;47.13;27.20;;;18.80;99.90;;;;;;5016579;28;20221;-65
2021/07/27 00:07:09;;;;;;;45.30;27.42;;;18.80;99.90;;;;;;5014576;28;20279;-65
2021/07/27 00:09:35;;;;;;;47.38;28.65;;;18.80;99.90;;;;;;5015005;28;20683;-66
2021/07/27 00:12:02;;;;;;;47.75;28.55;;;18.80;99.90;;;;;;5016248;28;20204;-64
2021/07/27 00:14:29;;;;;;;49.88;29.25;;;18.70;99.90;;;;;;5015187;28;20224;-66
2021/07/27 00:16:57;;;;;;;54.47;30.33;;;18.70;99.90;;;;;;5014493;28;20204;-64
2021/07/27 00:19:24;;;;;;;46.97;28.45;;;18.70;99.90;;;;;;5014034;28;20247;-64
2021/07/27 00:21:51;;;;;;;47.90;29.00;;;18.70;99.90;;;;;;5014672;28;20553;-64
2021/07/27 00:24:18;;;;;;;53.13;28.73;;;18.70;99.90;;;;;;5009546;28;20266;-65
2021/07/27 00:26:45;;;;;;;53.33;29.15;;;18.70;99.90;;;;;;5016156;28;20339;-65
2021/07/27 00:29:12;;;;;;;50.92;28.98;;;18.70;99.90;;;;;;5015675;28;20216;-63
2021/07/27 00:31:38;;;;;;;50.65;28.48;;;18.70;99.90;;;;;;5016277;28;20565;-65
2021/07/27 00:34:07;;;;;;;46.95;29.15;;;18.70;99.90;;;;;;5014995;28;20262;-65
2021/07/27 00:36:33;;;;;;;51.53;30.23;;;18.70;99.90;;;;;;5013531;28;20250;-66
2021/07/27 00:39:00;;;;;;;46.72;27.45;;;18.70;99.90;;;;;;5006217;28;20219;-66
2021/07/27 00:41:27;;;;;;;47.20;27.23;;;18.70;99.90;;;;;;4995619;28;20205;-63
2021/07/27 00:43:54;;;;;;;50.05;28.48;;;18.70;99.90;;;;;;5013831;28;20247;-66
2021/07/27 00:46:21;;;;;;;47.28;27.05;;;18.70;99.90;;;;;;5014680;28;20262;-64
2021/07/27 00:48:48;;;;;;;44.92;25.77;;;18.70;99.90;;;;;;5002192;28;20237;-66
2021/07/27 00:51:16;;;;;;;44.85;25.95;;;18.70;99.90;;;;;;5015030;28;20614;-65
2021/07/27 00:53:43;;;;;;;44.08;24.73;;;18.70;99.90;;;;;;5013552;28;20235;-63
2021/07/27 00:56:10;;;;;;;43.28;25.42;;;18.70;99.90;;;;;;5009428;28;20217;-66
2021/07/27 00:58:37;;;;;;;43.63;25.55;;;18.70;99.90;;;;;;5011564;28;20285;-65
2021/07/27 01:01:04;;;;;;;41.40;25.92;;;18.70;99.90;;;;;;5006424;28;20212;-66
2021/07/27 01:03:31;;;;;;;46.33;25.92;;;18.70;99.90;;;;;;4999778;28;20635;-64
2021/07/27 01:05:59;;;;;;;46.70;26.25;;;18.70;99.90;;;;;;5011808;28;20212;-64
2021/07/27 01:08:27;;;;;;;44.67;25.85;;;18.70;99.90;;;;;;5011296;28;20200;-64
2021/07/27 01:10:55;;;;;;;47.38;26.10;;;18.70;99.90;;;;;;5005355;28;20267;-64
2021/07/27 01:13:22;;;;;;;48.55;27.63;;;18.70;99.90;;;;;;5012503;28;20205;-67
2021/07/27 01:15:49;;;;;;;49.47;27.92;;;18.80;99.90;;;;;;5012934;28;20275;-65
2021/07/27 01:18:21;;;;;;;49.53;28.92;;;18.70;99.90;;;;;;5008122;28;20210;-64
2021/07/27 01:20:56;;;;;;;53.28;29.13;;;18.70;99.90;;;;;;5012741;28;20258;-63
2021/07/27 01:39:54;;;;;;;57.45;31.65;;;18.70;99.90;;;;;;5009756;28;20614;-65
2021/07/27 01:42:21;;;;;;;57.95;31.45;;;18.60;99.90;;;;;;5010217;28;20221;-63
2021/07/27 01:44:48;;;;;;;57.10;31.35;;;18.60;99.90;;;;;;5010215;28;20197;-65
2021/07/27 01:47:16;;;;;;;55.95;31.45;;;18.60;99.90;;;;;;5010986;28;20207;-64
2021/07/27 01:49:44;;;;;;;54.15;31.50;;;18.60;99.90;;;;;;5010881;28;20739;-63
2021/07/27 01:52:13;;;;;;;58.42;33.30;;;18.60;99.90;;;;;;5011015;28;20604;-66
2021/07/27 01:54:55;;;;;;;67.13;33.20;;;18.60;99.90;;;;;;5012679;28;21233;-63
2021/07/27 01:57:24;;;;;;;70.43;34.70;;;18.50;99.90;;;;;;5009664;28;20208;-63
2021/07/27 02:00:09;;;;;;;59.60;32.90;;;18.50;99.90;;;;;;5009645;28;20681;-63
2021/07/27 02:02:36;;;;;;;68.47;34.90;;;18.40;99.90;;;;;;5009541;28;20293;-62
2021/07/27 02:05:03;;;;;;;63.72;33.55;;;18.40;99.90;;;;;;5010678;28;20547;-64
2021/07/27 02:07:30;;;;;;;60.63;33.47;;;18.40;99.90;;;;;;5010196;28;20290;-64
2021/07/27 02:10:04;;;;;;;61.38;33.85;;;18.40;99.90;;;;;;5008782;28;20211;-66
2021/07/27 02:12:49;;;;;;;66.45;34.88;;;18.40;99.90;;;;;;5010604;28;20196;-65
2021/07/27 02:15:17;;;;;;;66.32;34.17;;;18.40;99.90;;;;;;5009176;28;20251;-65
2021/07/27 02:17:45;;;;;;;58.67;33.00;;;18.40;99.90;;;;;;5009463;28;20269;-66
2021/07/27 02:20:12;;;;;;;76.60;36.72;;;18.40;99.90;;;;;;5007718;28;20286;-65
2021/07/27 02:22:39;;;;;;;68.68;35.88;;;18.30;99.90;;;;;;5009778;28;20216;-64
2021/07/27 02:25:10;;;;;;;76.88;35.90;;;18.30;99.90;;;;;;5009428;28;20266;-64
2021/07/27 02:27:37;;;;;;;71.88;35.47;;;18.30;99.90;;;;;;5009421;28;20212;-64
2021/07/27 02:30:06;;;;;;;72.03;38.53;;;18.40;99.90;;;;;;5008960;28;20208;-62
2021/07/27 02:32:34;;;;;;;76.90;38.67;;;18.40;99.90;;;;;;4999958;28;20201;-64
2021/07/27 02:35:01;;;;;;;80.38;40.05;;;18.30;99.90;;;;;;5008892;28;20207;-66
2021/07/27 02:37:29;;;;;;;83.25;38.25;;;18.40;99.90;;;;;;5010548;28;20660;-63
2021/07/27 02:39:56;;;;;;;82.82;41.90;;;18.40;99.90;;;;;;5010728;28;20208;-64
2021/07/27 02:42:24;;;;;;;78.00;40.03;;;18.40;99.90;;;;;;5009763;28;20222;-65
2021/07/27 02:44:51;;;;;;;81.82;41.42;;;18.40;99.90;;;;;;5007635;28;20555;-65
2021/07/27 02:47:18;;;;;;;83.03;41.95;;;18.40;99.90;;;;;;5012686;28;20280;-64
2021/07/27 02:49:45;;;;;;;82.22;41.90;;;18.40;99.90;;;;;;5009401;28;20232;-66
2021/07/27 02:52:11;;;;;;;97.35;44.95;;;18.40;99.90;;;;;;5011232;28;20212;-64
2021/07/27 02:54:39;;;;;;;88.15;44.70;;;18.40;99.90;;;;;;5012078;28;20213;-64
2021/07/27 02:57:06;;;;;;;90.38;44.88;;;18.40;99.90;;;;;;5014022;28;20213;-65
2021/07/27 02:59:34;;;;;;;93.85;47.70;;;18.40;99.90;;;;;;5010822;28;20204;-63
2021/07/27 03:02:01;;;;;;;97.65;48.45;;;18.40;99.90;;;;;;5012570;28;20212;-65
2021/07/27 03:04:28;;;;;;;102.50;47.97;;;18.40;99.90;;;;;;5011091;28;20580;-64
2021/07/27 03:06:54;;;;;;;96.60;48.05;;;18.40;99.90;;;;;;5008936;28;20664;-65
2021/07/27 03:09:24;;;;;;;105.63;49.25;;;18.40;99.90;;;;;;5006473;28;20209;-66
2021/07/27 03:11:52;;;;;;;95.97;47.83;;;18.40;99.90;;;;;;5011058;28;20288;-63
2021/07/27 03:14:19;;;;;;;111.72;49.20;;;18.40;99.90;;;;;;5010085;28;20200;-64
2021/07/27 03:16:47;;;;;;;96.45;47.22;;;18.40;99.90;;;;;;5007857;28;20264;-64
2021/07/27 03:19:14;;;;;;;106.25;50.10;;;18.30;99.90;;;;;;5008533;28;20205;-65
2021/07/27 03:21:41;;;;;;;105.60;49.25;;;18.40;99.90;;;;;;5010029;28;20227;-63
2021/07/27 03:24:07;;;;;;;115.25;49.20;;;18.30;99.90;;;;;;5008850;28;20208;-66
2021/07/27 03:26:34;;;;;;;113.70;49.38;;;18.30;99.90;;;;;;5008507;28;20679;-64
2021/07/27 03:29:01;;;;;;;109.32;49.63;;;18.30;99.90;;;;;;5010123;28;20263;-66
2021/07/27 03:31:29;;;;;;;110.10;48.15;;;18.30;99.90;;;;;;5008705;28;20204;-66
2021/07/27 03:33:58;;;;;;;104.13;47.72;;;18.30;99.90;;;;;;5010026;28;20208;-63
2021/07/27 03:36:25;;;;;;;107.63;49.72;;;18.30;99.90;;;;;;5008814;28;20235;-65
2021/07/27 03:38:52;;;;;;;105.82;48.20;;;18.30;99.90;;;;;;5010475;28;20215;-63
2021/07/27 03:41:19;;;;;;;115.72;51.75;;;18.20;99.90;;;;;;5009527;28;20209;-66
2021/07/27 03:43:45;;;;;;;113.15;51.47;;;18.20;99.90;;;;;;5009681;28;20224;-65
2021/07/27 03:46:12;;;;;;;114.57;51.92;;;18.20;99.90;;;;;;5002378;28;20209;-65
2021/07/27 03:48:39;;;;;;;120.45;55.33;;;18.20;99.90;;;;;;5009474;28;20250;-65
2021/07/27 03:51:07;;;;;;;118.32;54.10;;;18.20;99.90;;;;;;5009715;28;20207;-64
2021/07/27 03:53:34;;;;;;;121.10;54.15;;;18.20;99.90;;;;;;5010018;28;20239;-66
2021/07/27 03:56:01;;;;;;;126.68;54.95;;;18.20;99.90;;;;;;5008865;28;20208;-66
2021/07/27 03:58:29;;;;;;;135.77;56.30;;;18.10;99.90;;;;;;5008604;28;20215;-67
2021/07/27 04:00:56;;;;;;;127.20;55.33;;;18.10;99.90;;;;;;5009027;28;20259;-67
2021/07/27 04:03:23;;;;;;;122.47;53.78;;;18.10;99.90;;;;;;5008271;28;20219;-64
2021/07/27 04:05:50;;;;;;;127.95;54.65;;;18.10;99.90;;;;;;5010022;28;20627;-64
2021/07/27 04:08:18;;;;;;;118.63;54.78;;;18.00;99.90;;;;;;5009258;28;20292;-65
2021/07/27 04:10:48;;;;;;;124.88;55.55;;;18.00;99.90;;;;;;5007917;28;20208;-64
2021/07/27 04:13:15;;;;;;;126.05;54.97;;;18.00;99.90;;;;;;5001981;28;20208;-67
2021/07/27 04:15:43;;;;;;;131.15;55.28;;;18.00;99.90;;;;;;5002091;28;20213;-63
2021/07/27 04:18:10;;;;;;;135.50;56.10;;;18.00;99.90;;;;;;5003196;28;20288;-64
2021/07/27 04:20:37;;;;;;;130.63;56.92;;;18.00;99.90;;;;;;4999864;28;20205;-65
2021/07/27 04:23:04;;;;;;;132.95;58.13;;;18.00;99.90;;;;;;4999088;28;20299;-65
2021/07/27 04:25:33;;;;;;;134.18;56.67;;;18.00;99.90;;;;;;5003662;28;20208;-64
2021/07/27 04:28:00;;;;;;;132.50;58.45;;;18.00;99.90;;;;;;5006610;28;20661;-64
2021/07/27 04:30:28;;;;;;;136.90;56.97;;;18.00;99.90;;;;;;5012157;28;20204;-64
2021/07/27 04:32:54;;;;;;;125.25;54.35;;;18.00;99.90;;;;;;5011237;28;20196;-65
2021/07/27 04:35:21;;;;;;;117.97;54.22;;;18.10;99.90;;;;;;5009800;28;20261;-64
2021/07/27 04:37:51;;;;;;;128.48;55.50;;;18.10;99.90;;;;;;5012584;28;20683;-64
2021/07/27 04:40:18;;;;;;;118.43;55.28;;;18.10;99.90;;;;;;5010924;28;20208;-65
2021/07/27 04:42:46;;;;;;;123.85;55.80;;;18.10;99.90;;;;;;5010553;28;20216;-65
2021/07/27 04:45:13;;;;;;;106.55;52.78;;;18.20;99.90;;;;;;5010137;28;20213;-65
2021/07/27 04:47:40;;;;;;;121.45;55.88;;;18.20;99.90;;;;;;5008618;28;20614;-64
2021/07/27 04:50:07;;;;;;;116.97;51.80;;;18.20;99.90;;;;;;5010698;28;20241;-64
2021/07/27 04:52:35;;;;;;;111.55;53.90;;;18.30;99.90;;;;;;5009199;28;20718;-64
2021/07/27 04:55:03;;;;;;;109.72;53.47;;;18.30;99.90;;;;;;5007548;28;20715;-65
2021/07/27 04:57:29;;;;;;;109.30;53.70;;;18.30;99.90;;;;;;4990868;28;20260;-64
2021/07/27 04:59:58;;;;;;;113.55;52.78;;;18.30;99.90;;;;;;5008564;28;20209;-65
2021/07/27 05:02:24;;;;;;;110.78;52.17;;;18.30;99.90;;;;;;5007754;28;20259;-66
2021/07/27 05:04:51;;;;;;;97.45;49.72;;;18.30;99.90;;;;;;5006602;28;20225;-65
2021/07/27 05:07:18;;;;;;;97.53;49.08;;;18.30;99.90;;;;;;5006733;28;20710;-65
2021/07/27 05:09:45;;;;;;;89.80;48.00;;;18.30;99.90;;;;;;5008544;28;20713;-65
2021/07/27 05:12:11;;;;;;;84.68;44.28;;;18.30;99.90;;;;;;5011246;28;20216;-65
2021/07/27 05:14:38;;;;;;;93.93;48.95;;;18.40;99.90;;;;;;5012536;28;20677;-64
2021/07/27 05:17:13;;;;;;;95.72;49.92;;;18.30;99.90;;;;;;5011147;28;20272;-67
2021/07/27 05:19:50;;;;;;;96.53;51.40;;;18.30;99.90;;;;;;5011244;28;20208;-66
2021/07/27 05:22:17;;;;;;;96.10;49.88;;;18.30;99.90;;;;;;5011153;28;20314;-66
2021/07/27 05:24:44;;;;;;;98.93;50.58;;;18.30;99.90;;;;;;5012057;28;20217;-66
2021/07/27 05:27:11;;;;;;;96.28;50.70;;;18.30;99.90;;;;;;5012308;28;20220;-66
2021/07/27 05:29:38;;;;;;;88.93;48.92;;;18.20;99.90;;;;;;5009602;28;20204;-66
2021/07/27 05:32:05;;;;;;;83.38;46.60;;;18.20;99.90;;;;;;5009180;28;20286;-67
2021/07/27 05:34:33;;;;;;;83.00;46.40;;;18.20;99.90;;;;;;5012038;28;20201;-67
2021/07/27 05:37:00;;;;;;;79.10;44.90;;;18.20;99.90;;;;;;5013121;28;20195;-68
2021/07/27 05:39:27;;;;;;;70.57;43.58;;;18.20;99.90;;;;;;5000594;28;20673;-68
2021/07/27 05:41:54;;;;;;;79.22;45.70;;;18.20;99.90;;;;;;5011099;28;20204;-68
2021/07/27 05:44:24;;;;;;;72.90;44.53;;;18.20;99.90;;;;;;5008015;28;20743;-68
2021/07/27 05:46:52;;;;;;;72.75;43.90;;;18.20;99.90;;;;;;5010348;28;20209;-70
2021/07/27 05:49:20;;;;;;;71.53;43.38;;;18.20;99.90;;;;;;5012328;28;20294;-69
2021/07/27 05:51:48;;;;;;;69.95;43.10;;;18.30;99.90;;;;;;5009603;28;20208;-70
2021/07/27 05:54:15;;;;;;;75.22;44.22;;;18.30;99.90;;;;;;4995753;28;20216;-70
2021/07/27 05:56:41;;;;;;;66.43;42.80;;;18.30;99.90;;;;;;5005377;28;20204;-73
2021/07/27 05:59:08;;;;;;;72.30;44.35;;;18.30;99.90;;;;;;5007084;28;20193;-69
2021/07/27 06:01:35;;;;;;;63.88;42.22;;;18.30;99.90;;;;;;5008652;28;20661;-70
2021/07/27 06:04:02;;;;;;;66.13;41.00;;;18.30;99.90;;;;;;5011212;28;20224;-71
2021/07/27 06:06:32;;;;;;;69.80;41.45;;;18.30;99.90;;;;;;5009042;28;20679;-70
2021/07/27 06:09:02;;;;;;;68.15;40.42;;;18.30;99.90;;;;;;5004447;28;20636;-70
2021/07/27 06:11:30;;;;;;;66.22;40.90;;;18.30;99.90;;;;;;5005795;28;20248;-70
2021/07/27 06:13:56;;;;;;;62.53;40.22;;;18.40;99.90;;;;;;5007550;28;20212;-70
2021/07/27 06:16:23;;;;;;;65.82;41.45;;;18.40;99.90;;;;;;5008239;28;20262;-70
2021/07/27 06:18:50;;;;;;;65.45;39.72;;;18.40;99.90;;;;;;5008724;28;20611;-71
2021/07/27 06:21:17;;;;;;;63.00;41.17;;;18.40;99.90;;;;;;5007991;28;20200;-72
2021/07/27 06:23:44;;;;;;;64.85;40.67;;;18.40;99.90;;;;;;5005293;28;20219;-71
2021/07/27 06:26:12;;;;;;;64.32;41.92;;;18.50;99.90;;;;;;5011561;28;20562;-71
2021/07/27 06:28:40;;;;;;;68.55;41.33;;;18.50;99.90;;;;;;5007905;28;20270;-72
2021/07/27 06:31:11;;;;;;;61.25;41.45;;;18.50;99.90;;;;;;5008759;28;20212;-70
2021/07/27 06:33:38;;;;;;;67.07;42.50;;;18.50;99.90;;;;;;5006629;28;20200;-72
2021/07/27 06:36:05;;;;;;;60.75;40.20;;;18.50;99.90;;;;;;5004538;28;20197;-71
2021/07/27 06:38:32;;;;;;;57.40;36.80;;;18.50;99.90;;;;;;5008774;28;20266;-68
2021/07/27 06:40:59;;;;;;;58.50;39.00;;;18.60;99.90;;;;;;5009768;28;20209;-69
2021/07/27 06:43:27;;;;;;;65.43;40.60;;;18.60;99.90;;;;;;5010621;28;20227;-69
2021/07/27 06:45:54;;;;;;;55.08;39.45;;;18.60;99.90;;;;;;5005564;28;20215;-67
2021/07/27 06:48:22;;;;;;;52.65;36.70;;;18.60;99.90;;;;;;5007327;28;20748;-67
2021/07/27 06:50:49;;;;;;;53.22;36.08;;;18.60;99.90;;;;;;5010053;28;20606;-69
2021/07/27 06:53:16;;;;;;;45.70;31.88;;;18.60;99.90;;;;;;5007670;28;20207;-73
2021/07/27 06:55:42;;;;;;;41.65;28.67;;;18.70;99.90;;;;;;5006925;28;20204;-69
2021/07/27 06:58:09;;;;;;;37.53;26.65;;;18.70;99.90;;;;;;5007437;28;20205;-69
2021/07/27 07:00:39;;;;;;;40.08;25.77;;;18.70;99.90;;;;;;5010172;28;20227;-68
2021/07/27 07:03:05;;;;;;;45.63;28.48;;;18.70;99.90;;;;;;5009944;28;20220;-69
2021/07/27 07:05:32;;;;;;;41.92;27.27;;;18.70;99.90;;;;;;5010713;28;20224;-68
2021/07/27 07:07:59;;;;;;;42.42;26.80;;;18.70;99.90;;;;;;5007620;28;20259;-73
2021/07/27 07:10:26;;;;;;;42.30;27.42;;;18.70;99.90;;;;;;5008755;28;20662;-69
2021/07/27 07:12:53;;;;;;;38.33;26.55;;;18.70;99.90;;;;;;5002693;28;20576;-68
2021/07/27 07:15:19;;;;;;;44.35;26.05;;;18.70;99.90;;;;;;5010841;28;20197;-69
2021/07/27 07:17:48;;;;;;;42.03;26.40;;;18.70;99.90;;;;;;5010346;28;20687;-68
2021/07/27 07:20:15;;;;;;;40.95;26.67;;;18.70;99.90;;;;;;5008867;28;20205;-67
2021/07/27 07:22:42;;;;;;;34.47;25.00;;;18.70;99.90;;;;;;4995753;28;20223;-69
2021/07/27 07:25:09;;;;;;;44.17;27.48;;;18.80;99.90;;;;;;5008511;28;20224;-68
2021/07/27 07:27:37;;;;;;;45.28;28.15;;;18.80;99.90;;;;;;5008109;28;20197;-68
2021/07/27 07:30:05;;;;;;;44.15;27.92;;;18.80;99.90;;;;;;5008402;28;20271;-68
2021/07/27 07:32:32;;;;;;;38.42;26.00;;;18.80;99.90;;;;;;4987373;28;20204;-66
2021/07/27 07:35:00;;;;;;;45.92;27.25;;;18.80;99.90;;;;;;5008276;28;20202;-68
2021/07/27 07:37:26;;;;;;;45.50;27.77;;;18.80;99.90;;;;;;5009268;28;20212;-68
2021/07/27 07:39:53;;;;;;;43.33;26.90;;;18.90;99.90;;;;;;5008601;28;20274;-71
2021/07/27 07:42:20;;;;;;;45.35;28.73;;;18.90;99.90;;;;;;5010362;28;20212;-68
2021/07/27 07:44:47;;;;;;;43.28;28.52;;;18.90;99.90;;;;;;5007122;28;20279;-68
2021/07/27 07:47:14;;;;;;;45.70;28.70;;;19.00;99.90;;;;;;5012831;28;20204;-65
2021/07/27 07:49:41;;;;;;;41.28;29.35;;;19.00;99.90;;;;;;5007050;28;20240;-65
2021/07/27 07:52:09;;;;;;;49.67;30.08;;;19.00;99.90;;;;;;5010383;28;23134;-65
2021/07/27 07:54:35;;;;;;;46.55;31.77;;;19.10;99.90;;;;;;5010336;28;20200;-67
2021/07/27 07:57:02;;;;;;;47.08;30.75;;;19.10;99.90;;;;;;5010011;28;20224;-67
2021/07/27 07:59:29;;;;;;;50.33;31.55;;;19.10;99.90;;;;;;5008444;28;20664;-66
2021/07/27 08:01:59;;;;;;;47.95;32.17;;;19.10;99.90;;;;;;5004889;28;20211;-66
2021/07/27 08:04:26;;;;;;;45.50;30.75;;;19.10;99.90;;;;;;5012897;28;20305;-68
2021/07/27 08:06:53;;;;;;;47.45;31.48;;;19.20;99.90;;;;;;5016403;28;20208;-67
2021/07/27 08:09:21;;;;;;;44.67;30.42;;;19.20;99.90;;;;;;5015765;28;20204;-66
2021/07/27 08:11:47;;;;;;;48.28;30.48;;;19.10;99.90;;;;;;5014030;28;20211;-67
2021/07/27 08:14:14;;;;;;;49.22;29.63;;;19.10;99.90;;;;;;5016071;28;20663;-64
2021/07/27 08:16:41;;;;;;;47.55;29.75;;;19.20;99.90;;;;;;5016730;28;20628;-65
2021/07/27 08:19:08;;;;;;;43.83;28.48;;;19.20;99.90;;;;;;5017503;28;20208;-67
2021/07/27 08:21:35;;;;;;;48.95;29.67;;;19.30;99.90;;;;;;5018105;28;20204;-66
2021/07/27 08:24:01;;;;;;;45.25;29.55;;;19.40;99.90;;;;;;5014813;28;20208;-65
2021/07/27 08:26:30;;;;;;;42.20;29.33;;;19.50;99.90;;;;;;5015401;28;20606;-65
2021/07/27 08:28:56;;;;;;;42.10;28.73;;;19.60;99.90;;;;;;5013000;28;20200;-68
2021/07/27 08:31:23;;;;;;;42.15;27.60;;;19.60;99.90;;;;;;5016095;28;20553;-67
2021/07/27 08:33:50;;;;;;;40.72;27.45;;;19.70;99.90;;;;;;5013093;28;20656;-68
2021/07/27 08:36:17;;;;;;;38.65;25.52;;;19.70;99.90;;;;;;5017072;28;20201;-68
2021/07/27 08:38:44;;;;;;;41.08;27.10;;;19.80;99.90;;;;;;4995627;28;20223;-69
2021/07/27 08:41:12;;;;;;;41.55;26.27;;;19.80;99.90;;;;;;5013938;28;20204;-69
2021/07/27 08:43:41;;;;;;;37.30;26.20;;;19.90;99.90;;;;;;5014176;28;20274;-66
2021/07/27 08:46:07;;;;;;;39.45;25.58;;;19.90;99.90;;;;;;5015490;28;20201;-64
2021/07/27 08:48:36;;;;;;;38.50;24.98;;;19.90;99.90;;;;;;5013379;28;20290;-64
2021/07/27 08:51:03;;;;;;;42.15;26.55;;;19.90;99.90;;;;;;5011407;28;20437;-64
2021/07/27 08:53:30;;;;;;;41.67;25.60;;;19.90;99.90;;;;;;5012366;28;20216;-63
2021/07/27 08:55:59;;;;;;;44.75;26.70;;;20.00;99.90;;;;;;5012786;28;20200;-63
2021/07/27 08:58:27;;;;;;;41.35;27.02;;;20.00;99.90;;;;;;5005125;28;20217;-64
2021/07/27 09:00:55;;;;;;;42.30;26.25;;;19.90;99.90;;;;;;5014320;28;20204;-64
2021/07/27 09:03:22;;;;;;;44.80;26.20;;;20.00;99.90;;;;;;5013184;28;20208;-64
2021/07/27 09:06:03;;;;;;;41.92;26.40;;;20.00;99.90;;;;;;5016799;28;20228;-64
2021/07/27 09:08:30;;;;;;;42.75;24.67;;;20.00;99.90;;;;;;5011883;28;20200;-64
2021/07/27 09:11:00;;;;;;;40.72;25.48;;;19.90;99.90;;;;;;5012649;28;20218;-64
2021/07/27 09:13:31;;;;;;;39.13;24.45;;;19.90;99.90;;;;;;5014131;28;20633;-64
2021/07/27 09:16:00;;;;;;;37.28;23.30;;;20.00;99.90;;;;;;5009881;28;20203;-63
2021/07/27 09:18:29;;;;;;;38.90;25.25;;;20.00;99.90;;;;;;5014247;28;20657;-64
2021/07/27 09:20:56;;;;;;;38.80;24.00;;;20.00;99.90;;;;;;5010237;28;20212;-64
2021/07/27 09:23:25;;;;;;;37.35;23.73;;;20.10;99.90;;;;;;5011998;28;20227;-64
2021/07/27 09:25:54;;;;;;;42.35;23.85;;;20.20;99.90;;;;;;5016603;28;20254;-62
2021/07/27 09:28:24;;;;;;;37.25;23.02;;;20.30;99.90;;;;;;5012841;28;20212;-63
2021/07/27 09:30:57;;;;;;;47.22;25.55;;;20.20;99.90;;;;;;5014892;28;20634;-64
2021/07/27 09:33:30;;;;;;;36.53;24.05;;;20.30;99.90;;;;;;5012804;28;20287;-64
2021/07/27 09:35:57;;;;;;;40.10;24.67;;;20.30;99.90;;;;;;5009825;28;20199;-64
2021/07/27 09:38:26;;;;;;;41.40;23.00;;;20.30;99.90;;;;;;5011894;28;20196;-63
2021/07/27 09:40:54;;;;;;;38.08;25.15;;;20.30;99.90;;;;;;5011515;28;20212;-64
2021/07/27 09:43:23;;;;;;;40.30;24.67;;;20.30;99.90;;;;;;5009812;28;20259;-64
2021/07/27 09:45:51;;;;;;;39.55;24.67;;;20.40;99.90;;;;;;5009633;28;20684;-63
2021/07/27 09:48:20;;;;;;;41.17;24.63;;;20.40;99.90;;;;;;5009897;28;20319;-63
2021/07/27 09:50:50;;;;;;;36.47;23.85;;;20.40;99.90;;;;;;5009595;28;20222;-63
2021/07/27 09:53:17;;;;;;;42.50;24.38;;;20.50;99.90;;;;;;5010945;28;20205;-63
2021/07/27 09:55:44;;;;;;;38.72;24.23;;;20.50;99.90;;;;;;5007585;28;20212;-65
2021/07/27 09:58:12;;;;;;;42.97;24.58;;;20.60;99.90;;;;;;5009966;28;20937;-65
2021/07/27 10:00:47;;;;;;;38.30;24.13;;;20.60;99.90;;;;;;5009478;28;20250;-69
2021/07/27 10:03:18;;;;;;;42.42;25.73;;;20.60;99.90;;;;;;5009282;28;20215;-64
2021/07/27 10:05:52;;;;;;;36.95;23.85;;;20.60;99.90;;;;;;5011210;28;20228;-68
2021/07/27 10:08:27;;;;;;;41.65;26.23;;;20.70;99.90;;;;;;5012095;28;20208;-65
2021/07/27 10:11:05;;;;;;;40.65;26.35;;;20.60;99.90;;;;;;5009860;28;20262;-64
2021/07/27 10:13:33;;;;;;;43.60;27.00;;;20.60;99.90;;;;;;5007946;28;20204;-64
2021/07/27 10:16:00;;;;;;;45.58;28.50;;;20.60;99.90;;;;;;5010121;28;20193;-72
2021/07/27 10:18:31;;;;;;;53.88;30.95;;;20.50;99.90;;;;;;5010852;28;20261;-70
2021/07/27 10:21:23;;;;;;;59.95;32.28;;;20.50;99.90;;;;;;5010723;28;20664;-67
2021/07/27 10:23:50;;;;;;;60.00;35.08;;;20.40;99.90;;;;;;5009249;28;20200;-72
2021/07/27 10:26:26;;;;;;;67.38;34.65;;;20.30;99.90;;;;;;5008911;28;20611;-68
2021/07/27 10:28:54;;;;;;;61.28;35.47;;;20.10;99.90;;;;;;5011630;28;20223;-63
2021/07/27 10:31:31;;;;;;;98.72;38.08;;;19.90;99.90;;;;;;5009812;28;20201;-66
2021/07/27 10:33:58;;;;;;;66.93;35.75;;;19.70;99.90;;;;;;5007690;28;20287;-64
2021/07/27 10:36:27;;;;;;;40.95;26.10;;;19.60;99.90;;;;;;5009595;28;20207;-64
2021/07/27 10:39:09;;;;;;;49.67;29.23;;;19.40;99.90;;;;;;5008969;28;20680;-66
2021/07/27 10:41:38;;;;;;;54.97;32.92;;;19.30;99.90;;;;;;5009625;28;20207;-62
2021/07/27 10:44:06;;;;;;;55.75;33.42;;;19.20;99.90;;;;;;5006298;28;20673;-63
2021/07/27 10:46:37;;;;;;;64.78;35.63;;;19.10;99.90;;;;;;5005454;28;20229;-62
2021/07/27 10:49:04;;;;;;;64.70;36.85;;;19.10;99.90;;;;;;5003497;28;20260;-67
2021/07/27 10:51:37;;;;;;;64.30;38.25;;;19.10;99.90;;;;;;5012444;28;20660;-65
2021/07/27 10:54:05;;;;;;;72.70;38.92;;;19.10;99.90;;;;;;5008930;28;20209;-65
2021/07/27 10:56:33;;;;;;;61.83;34.20;;;19.10;99.90;;;;;;5007527;28;20201;-66
2021/07/27 10:59:02;;;;;;;51.25;30.40;;;19.20;99.90;;;;;;5008288;28;20218;-64
2021/07/27 11:01:33;;;;;;;55.22;32.42;;;19.30;99.90;;;;;;5008301;28;20254;-65
2021/07/27 11:04:11;;;;;;;58.42;32.75;;;19.40;99.90;;;;;;5007537;28;20220;-64
2021/07/27 11:06:39;;;;;;;52.25;30.00;;;19.50;99.90;;;;;;5007104;28;20220;-65
2021/07/27 11:09:11;;;;;;;49.47;29.63;;;19.60;99.90;;;;;;5008212;28;20702;-63
2021/07/27 11:11:44;;;;;;;48.47;27.88;;;19.90;99.90;;;;;;5007529;28;20216;-66
2021/07/27 11:14:11;;;;;;;42.50;25.25;;;20.20;99.90;;;;;;5012086;28;20653;-67
2021/07/27 11:16:42;;;;;;;34.25;22.60;;;20.50;99.90;;;;;;5012867;28;20196;-66
2021/07/27 11:19:10;;;;;;;37.15;21.08;;;20.70;99.90;;;;;;5012642;28;20204;-65
2021/07/27 11:21:40;;;;;;;31.35;18.30;;;20.80;99.90;;;;;;5014004;28;20222;-67
2021/07/27 11:24:08;;;;;;;31.38;17.48;;;20.90;99.90;;;;;;5009306;28;20208;-66
2021/07/27 11:26:38;;;;;;;30.73;17.45;;;21.00;99.90;;;;;;5012627;28;20234;-66
2021/07/27 11:29:10;;;;;;;31.75;16.42;;;21.00;99.90;;;;;;5011399;28;20227;-65
2021/07/27 11:31:45;;;;;;;31.40;16.77;;;21.00;99.90;;;;;;5010654;28;20657;-64
2021/07/27 11:34:12;;;;;;;26.10;16.40;;;21.10;99.90;;;;;;5009292;28;20287;-64
2021/07/27 11:36:50;;;;;;;30.95;15.60;;;21.20;99.90;;;;;;5008743;28;20201;-65
2021/07/27 11:39:17;;;;;;;26.80;15.30;;;21.30;99.90;;;;;;5008944;28;20200;-67
2021/07/27 11:41:44;;;;;;;22.50;13.50;;;21.40;99.90;;;;;;5010765;28;20266;-66
2021/07/27 11:44:12;;;;;;;29.10;12.77;;;21.40;99.90;;;;;;5008498;28;20614;-66
2021/07/27 11:46:44;;;;;;;21.20;11.80;;;21.30;99.90;;;;;;5009797;28;20302;-68
2021/07/27 11:49:11;;;;;;;22.50;9.73;;;21.30;99.90;;;;;;4989500;28;20336;-71
2021/07/27 11:51:38;;;;;;;25.17;9.10;;;21.20;99.90;;;;;;4987829;28;20206;-70
2021/07/27 11:54:07;;;;;;;16.27;9.77;;;21.20;99.90;;;;;;4988991;28;20618;-70
2021/07/27 11:56:45;;;;;;;13.75;7.00;;;21.10;99.90;;;;;;4985863;28;20209;-71
2021/07/27 11:59:12;;;;;;;18.40;7.45;;;21.20;99.90;;;;;;4986267;28;20280;-70
2021/07/27 12:01:39;;;;;;;11.85;6.57;;;21.20;99.90;;;;;;4987789;28;20212;-66
2021/07/27 12:04:06;;;;;;;9.43;5.00;;;21.10;99.90;;;;;;4985519;28;20205;-69
2021/07/27 12:06:33;;;;;;;9.70;4.85;;;21.10;99.90;;;;;;4988633;28;20217;-71
2021/07/27 12:09:01;;;;;;;12.40;4.93;;;21.00;99.90;;;;;;4989552;28;20209;-70
2021/07/27 12:11:29;;;;;;;14.13;5.32;;;21.00;99.90;;;;;;4988866;28;20197;-71
2021/07/27 12:13:56;;;;;;;13.77;4.80;;;21.00;99.90;;;;;;4988704;28;20732;-71
2021/07/27 12:16:23;;;;;;;10.85;4.32;;;21.00;99.90;;;;;;4988204;28;20603;-68
2021/07/27 12:18:49;;;;;;;12.32;4.45;;;21.00;99.90;;;;;;4991859;28;20264;-71
2021/07/27 12:21:16;;;;;;;13.05;4.50;;;21.00;99.90;;;;;;4990644;28;20244;-68
2021/07/27 12:23:43;;;;;;;9.73;4.50;;;21.00;99.90;;;;;;4991664;28;20666;-67
2021/07/27 12:26:10;;;;;;;9.18;4.80;;;21.00;99.90;;;;;;4991610;28;20213;-67
2021/07/27 12:28:38;;;;;;;18.27;4.22;;;21.10;99.90;;;;;;4990736;28;20202;-66
2021/07/27 12:31:04;;;;;;;17.70;4.32;;;21.30;99.90;;;;;;4992138;28;20738;-65
2021/07/27 12:33:31;;;;;;;10.48;3.78;;;21.60;99.90;;;;;;4991654;28;20666;-66
2021/07/27 12:36:00;;;;;;;14.15;4.38;;;21.90;99.90;;;;;;4993169;28;20212;-66
2021/07/27 12:38:27;;;;;;;10.27;3.72;;;22.40;99.90;;;;;;4991343;28;20204;-68
2021/07/27 12:40:53;;;;;;;14.77;3.90;;;22.80;99.90;;;;;;5002148;28;20665;-66
2021/07/27 12:43:21;;;;;;;8.35;3.17;;;23.20;99.90;;;;;;4994375;28;20205;-66
2021/07/27 12:45:49;;;;;;;10.70;3.33;;;23.50;99.70;;;;;;4989580;28;20228;-67
2021/07/27 12:48:16;;;;;;;14.73;3.80;;;23.70;98.70;;;;;;4994845;28;20274;-69